sensor_id;sensor_type;location;lat;lon;timestamp;temperature;humidity
802;DHT22;383;48.766;9.270;2022-07-26T00:02:26;24.30;63.00
802;DHT22;383;48.766;9.270;2022-07-26T00:04:52;24.30;63.00
802;DHT22;383;48.766;9.270;2022-07-26T00:07:19;24.30;63.10
802;DHT22;383;48.766;9.270;2022-07-26T00:09:46;24.20;63.10
802;DHT22;383;48.766;9.270;2022-07-26T00:12:12;24.20;63.90
802;DHT22;383;48.766;9.270;2022-07-26T00:14:39;24.20;64.10
802;DHT22;383;48.766;9.270;2022-07-26T00:17:07;24.30;64.30
802;DHT22;383;48.766;9.270;2022-07-26T00:19:34;24.20;64.10
802;DHT22;383;48.766;9.270;2022-07-26T00:22:00;24.20;64.60
802;DHT22;383;48.766;9.270;2022-07-26T00:24:45;24.10;65.40
802;DHT22;383;48.766;9.270;2022-07-26T00:27:11;24.10;65.50
802;DHT22;383;48.766;9.270;2022-07-26T00:29:38;24.00;65.40
802;DHT22;383;48.766;9.270;2022-07-26T00:32:06;23.90;65.10
802;DHT22;383;48.766;9.270;2022-07-26T00:34:33;24.00;65.40
802;DHT22;383;48.766;9.270;2022-07-26T00:37:00;24.00;65.50
802;DHT22;383;48.766;9.270;2022-07-26T00:39:27;24.00;66.20
802;DHT22;383;48.766;9.270;2022-07-26T00:41:54;24.10;65.60
802;DHT22;383;48.766;9.270;2022-07-26T00:44:20;24.10;65.60
802;DHT22;383;48.766;9.270;2022-07-26T00:46:47;24.10;65.50
802;DHT22;383;48.766;9.270;2022-07-26T00:49:15;24.20;65.20
802;DHT22;383;48.766;9.270;2022-07-26T00:51:42;24.10;65.50
802;DHT22;383;48.766;9.270;2022-07-26T00:54:09;24.10;65.40
802;DHT22;383;48.766;9.270;2022-07-26T00:56:36;24.10;65.90
802;DHT22;383;48.766;9.270;2022-07-26T00:59:04;24.20;65.20
802;DHT22;383;48.766;9.270;2022-07-26T01:01:30;24.20;65.80
802;DHT22;383;48.766;9.270;2022-07-26T01:03:58;24.10;65.40
802;DHT22;383;48.766;9.270;2022-07-26T01:06:26;24.10;65.50
802;DHT22;383;48.766;9.270;2022-07-26T01:08:52;24.10;65.40
802;DHT22;383;48.766;9.270;2022-07-26T01:11:19;24.20;65.20
802;DHT22;383;48.766;9.270;2022-07-26T01:13:46;24.20;65.50
802;DHT22;383;48.766;9.270;2022-07-26T01:16:13;24.20;65.40
802;DHT22;383;48.766;9.270;2022-07-26T01:18:40;24.20;65.60
802;DHT22;383;48.766;9.270;2022-07-26T01:21:08;24.30;66.80
802;DHT22;383;48.766;9.270;2022-07-26T01:23:37;24.40;66.80
802;DHT22;383;48.766;9.270;2022-07-26T01:26:04;24.40;67.50
802;DHT22;383;48.766;9.270;2022-07-26T01:28:34;24.40;68.40
802;DHT22;383;48.766;9.270;2022-07-26T01:31:02;24.20;71.10
802;DHT22;383;48.766;9.270;2022-07-26T01:33:29;24.10;72.80
802;DHT22;383;48.766;9.270;2022-07-26T01:35:56;23.80;74.50
802;DHT22;383;48.766;9.270;2022-07-26T01:38:23;23.60;76.00
802;DHT22;383;48.766;9.270;2022-07-26T01:40:52;23.30;77.50
802;DHT22;383;48.766;9.270;2022-07-26T01:43:19;23.10;78.20
802;DHT22;383;48.766;9.270;2022-07-26T01:45:46;23.00;79.10
802;DHT22;383;48.766;9.270;2022-07-26T01:48:12;22.90;79.90
802;DHT22;383;48.766;9.270;2022-07-26T01:50:39;22.70;80.80
802;DHT22;383;48.766;9.270;2022-07-26T01:53:06;22.50;81.60
802;DHT22;383;48.766;9.270;2022-07-26T01:55:33;22.50;81.90
802;DHT22;383;48.766;9.270;2022-07-26T01:58:02;22.40;81.80
802;DHT22;383;48.766;9.270;2022-07-26T02:00:29;22.40;82.00
802;DHT22;383;48.766;9.270;2022-07-26T02:02:56;22.40;82.30
802;DHT22;383;48.766;9.270;2022-07-26T02:05:23;22.30;82.60
802;DHT22;383;48.766;9.270;2022-07-26T02:07:49;22.20;82.70
802;DHT22;383;48.766;9.270;2022-07-26T02:10:16;22.20;82.70
802;DHT22;383;48.766;9.270;2022-07-26T02:12:43;22.20;82.60
802;DHT22;383;48.766;9.270;2022-07-26T02:15:12;22.10;82.60
802;DHT22;383;48.766;9.270;2022-07-26T02:17:39;22.10;82.60
802;DHT22;383;48.766;9.270;2022-07-26T02:20:07;22.10;83.00
802;DHT22;383;48.766;9.270;2022-07-26T02:22:34;22.10;83.00
802;DHT22;383;48.766;9.270;2022-07-26T02:25:01;22.10;82.80
802;DHT22;383;48.766;9.270;2022-07-26T02:27:28;22.10;82.70
802;DHT22;383;48.766;9.270;2022-07-26T02:29:55;22.20;82.60
802;DHT22;383;48.766;9.270;2022-07-26T02:32:23;22.20;82.30
802;DHT22;383;48.766;9.270;2022-07-26T02:34:49;22.20;82.30
802;DHT22;383;48.766;9.270;2022-07-26T02:37:16;22.20;82.30
802;DHT22;383;48.766;9.270;2022-07-26T02:39:43;22.20;82.30
802;DHT22;383;48.766;9.270;2022-07-26T02:42:09;22.20;82.20
802;DHT22;383;48.766;9.270;2022-07-26T02:44:36;22.10;82.60
802;DHT22;383;48.766;9.270;2022-07-26T02:47:03;22.20;82.40
802;DHT22;383;48.766;9.270;2022-07-26T02:49:31;22.20;81.90
802;DHT22;383;48.766;9.270;2022-07-26T02:51:57;22.30;81.90
802;DHT22;383;48.766;9.270;2022-07-26T02:54:24;22.40;81.80
802;DHT22;383;48.766;9.270;2022-07-26T02:56:51;22.40;81.40
802;DHT22;383;48.766;9.270;2022-07-26T02:59:17;22.40;81.20
802;DHT22;383;48.766;9.270;2022-07-26T03:01:44;22.40;81.60
802;DHT22;383;48.766;9.270;2022-07-26T03:04:11;22.40;81.50
802;DHT22;383;48.766;9.270;2022-07-26T03:06:39;22.30;81.80
802;DHT22;383;48.766;9.270;2022-07-26T03:09:05;22.30;81.80
802;DHT22;383;48.766;9.270;2022-07-26T03:11:32;22.30;81.80
802;DHT22;383;48.766;9.270;2022-07-26T03:13:59;22.30;81.80
802;DHT22;383;48.766;9.270;2022-07-26T03:16:25;22.20;82.30
802;DHT22;383;48.766;9.270;2022-07-26T03:18:52;22.20;82.30
802;DHT22;383;48.766;9.270;2022-07-26T03:21:19;22.30;82.00
802;DHT22;383;48.766;9.270;2022-07-26T03:23:47;22.30;82.00
802;DHT22;383;48.766;9.270;2022-07-26T03:26:14;22.40;81.60
802;DHT22;383;48.766;9.270;2022-07-26T03:28:40;22.40;81.40
802;DHT22;383;48.766;9.270;2022-07-26T03:31:09;22.40;81.50
802;DHT22;383;48.766;9.270;2022-07-26T03:33:35;22.30;82.00
802;DHT22;383;48.766;9.270;2022-07-26T03:36:02;22.30;82.20
802;DHT22;383;48.766;9.270;2022-07-26T03:38:29;22.20;82.40
802;DHT22;383;48.766;9.270;2022-07-26T03:40:57;22.30;82.20
802;DHT22;383;48.766;9.270;2022-07-26T03:43:24;22.20;82.20
802;DHT22;383;48.766;9.270;2022-07-26T03:45:51;22.20;82.30
802;DHT22;383;48.766;9.270;2022-07-26T03:48:17;22.20;82.30
802;DHT22;383;48.766;9.270;2022-07-26T03:50:44;22.20;82.60
802;DHT22;383;48.766;9.270;2022-07-26T03:53:11;22.10;82.70
802;DHT22;383;48.766;9.270;2022-07-26T03:55:37;22.10;82.40
802;DHT22;383;48.766;9.270;2022-07-26T03:58:23;22.10;82.80
802;DHT22;383;48.766;9.270;2022-07-26T04:00:49;22.00;83.00
802;DHT22;383;48.766;9.270;2022-07-26T04:03:16;22.00;83.10
802;DHT22;383;48.766;9.270;2022-07-26T04:05:43;21.90;83.00
802;DHT22;383;48.766;9.270;2022-07-26T04:08:09;21.90;83.10
802;DHT22;383;48.766;9.270;2022-07-26T04:10:36;21.80;83.50
802;DHT22;383;48.766;9.270;2022-07-26T04:13:03;21.70;83.00
802;DHT22;383;48.766;9.270;2022-07-26T04:15:31;21.80;82.40
802;DHT22;383;48.766;9.270;2022-07-26T04:17:57;21.70;82.60
802;DHT22;383;48.766;9.270;2022-07-26T04:20:24;21.80;82.20
802;DHT22;383;48.766;9.270;2022-07-26T04:22:51;21.80;82.00
802;DHT22;383;48.766;9.270;2022-07-26T04:25:17;21.80;82.40
802;DHT22;383;48.766;9.270;2022-07-26T04:27:44;21.80;82.60
802;DHT22;383;48.766;9.270;2022-07-26T04:30:12;21.80;82.40
802;DHT22;383;48.766;9.270;2022-07-26T04:32:40;21.80;81.20
802;DHT22;383;48.766;9.270;2022-07-26T04:35:07;21.80;81.50
802;DHT22;383;48.766;9.270;2022-07-26T04:37:38;21.80;80.80
802;DHT22;383;48.766;9.270;2022-07-26T04:40:07;21.90;81.00
802;DHT22;383;48.766;9.270;2022-07-26T04:42:34;22.00;80.80
802;DHT22;383;48.766;9.270;2022-07-26T04:45:00;22.10;80.20
802;DHT22;383;48.766;9.270;2022-07-26T04:47:27;22.10;80.20
802;DHT22;383;48.766;9.270;2022-07-26T04:49:55;22.10;79.80
802;DHT22;383;48.766;9.270;2022-07-26T04:52:22;22.10;79.90
802;DHT22;383;48.766;9.270;2022-07-26T04:54:49;22.10;79.90
802;DHT22;383;48.766;9.270;2022-07-26T04:57:15;22.20;80.20
802;DHT22;383;48.766;9.270;2022-07-26T04:59:43;22.20;79.70
802;DHT22;383;48.766;9.270;2022-07-26T05:02:09;22.30;79.10
802;DHT22;383;48.766;9.270;2022-07-26T05:04:39;22.40;79.70
802;DHT22;383;48.766;9.270;2022-07-26T05:07:07;22.60;77.40
802;DHT22;383;48.766;9.270;2022-07-26T05:09:34;22.60;77.50
802;DHT22;383;48.766;9.270;2022-07-26T05:12:01;22.60;77.70
802;DHT22;383;48.766;9.270;2022-07-26T05:14:27;22.70;77.10
802;DHT22;383;48.766;9.270;2022-07-26T05:16:54;22.80;77.80
802;DHT22;383;48.766;9.270;2022-07-26T05:19:21;22.90;77.40
802;DHT22;383;48.766;9.270;2022-07-26T05:21:47;23.00;77.40
802;DHT22;383;48.766;9.270;2022-07-26T05:24:17;23.10;76.70
802;DHT22;383;48.766;9.270;2022-07-26T05:26:43;23.30;75.70
802;DHT22;383;48.766;9.270;2022-07-26T05:29:10;23.30;76.20
802;DHT22;383;48.766;9.270;2022-07-26T05:31:37;23.40;74.90
802;DHT22;383;48.766;9.270;2022-07-26T05:34:03;23.40;75.30
802;DHT22;383;48.766;9.270;2022-07-26T05:36:30;23.50;75.30
802;DHT22;383;48.766;9.270;2022-07-26T05:38:57;23.40;74.50
802;DHT22;383;48.766;9.270;2022-07-26T05:41:25;23.50;74.20
802;DHT22;383;48.766;9.270;2022-07-26T05:43:52;23.50;74.00
802;DHT22;383;48.766;9.270;2022-07-26T05:46:18;23.50;73.70
802;DHT22;383;48.766;9.270;2022-07-26T05:48:45;23.60;74.80
802;DHT22;383;48.766;9.270;2022-07-26T05:51:12;23.80;73.30
802;DHT22;383;48.766;9.270;2022-07-26T05:53:38;23.90;72.00
802;DHT22;383;48.766;9.270;2022-07-26T05:56:06;23.80;72.10
802;DHT22;383;48.766;9.270;2022-07-26T05:58:34;23.80;72.90
802;DHT22;383;48.766;9.270;2022-07-26T06:01:01;23.80;72.80
802;DHT22;383;48.766;9.270;2022-07-26T06:03:29;23.70;72.30
802;DHT22;383;48.766;9.270;2022-07-26T06:05:57;23.40;73.60
802;DHT22;383;48.766;9.270;2022-07-26T06:08:24;23.20;73.30
802;DHT22;383;48.766;9.270;2022-07-26T06:10:52;23.00;74.10
802;DHT22;383;48.766;9.270;2022-07-26T06:13:19;23.00;74.20
802;DHT22;383;48.766;9.270;2022-07-26T06:15:47;23.00;74.10
802;DHT22;383;48.766;9.270;2022-07-26T06:18:14;22.90;74.60
802;DHT22;383;48.766;9.270;2022-07-26T06:20:42;22.90;74.50
802;DHT22;383;48.766;9.270;2022-07-26T06:23:09;22.90;74.40
802;DHT22;383;48.766;9.270;2022-07-26T06:25:36;23.00;73.20
802;DHT22;383;48.766;9.270;2022-07-26T06:28:03;23.00;72.90
802;DHT22;383;48.766;9.270;2022-07-26T06:30:30;23.10;73.20
802;DHT22;383;48.766;9.270;2022-07-26T06:32:58;23.10;72.40
802;DHT22;383;48.766;9.270;2022-07-26T06:35:28;23.10;72.40
802;DHT22;383;48.766;9.270;2022-07-26T06:37:57;23.10;70.80
802;DHT22;383;48.766;9.270;2022-07-26T06:40:24;23.00;70.90
802;DHT22;383;48.766;9.270;2022-07-26T06:42:51;23.00;70.30
802;DHT22;383;48.766;9.270;2022-07-26T06:45:18;23.10;70.70
802;DHT22;383;48.766;9.270;2022-07-26T06:47:44;23.10;68.30
802;DHT22;383;48.766;9.270;2022-07-26T06:50:13;23.10;67.10
802;DHT22;383;48.766;9.270;2022-07-26T06:52:39;23.20;66.30
802;DHT22;383;48.766;9.270;2022-07-26T06:55:06;23.20;65.10
802;DHT22;383;48.766;9.270;2022-07-26T06:57:34;23.30;65.00
802;DHT22;383;48.766;9.270;2022-07-26T07:00:00;23.40;63.50
802;DHT22;383;48.766;9.270;2022-07-26T07:02:27;23.50;63.40
802;DHT22;383;48.766;9.270;2022-07-26T07:04:54;23.60;64.20
802;DHT22;383;48.766;9.270;2022-07-26T07:07:22;23.90;62.90
802;DHT22;383;48.766;9.270;2022-07-26T07:09:49;24.00;61.90
802;DHT22;383;48.766;9.270;2022-07-26T07:12:15;24.00;61.90
802;DHT22;383;48.766;9.270;2022-07-26T07:14:42;24.10;62.30
802;DHT22;383;48.766;9.270;2022-07-26T07:17:09;24.20;60.10
802;DHT22;383;48.766;9.270;2022-07-26T07:19:36;24.20;59.20
802;DHT22;383;48.766;9.270;2022-07-26T07:22:03;24.20;58.50
802;DHT22;383;48.766;9.270;2022-07-26T07:24:32;24.20;58.10
802;DHT22;383;48.766;9.270;2022-07-26T07:26:58;24.20;58.70
802;DHT22;383;48.766;9.270;2022-07-26T07:29:25;24.20;58.30
802;DHT22;383;48.766;9.270;2022-07-26T07:31:52;24.30;58.50
802;DHT22;383;48.766;9.270;2022-07-26T07:34:20;24.40;57.70
802;DHT22;383;48.766;9.270;2022-07-26T07:36:48;24.40;58.10
802;DHT22;383;48.766;9.270;2022-07-26T07:39:14;24.40;57.10
802;DHT22;383;48.766;9.270;2022-07-26T07:41:43;24.20;58.30
802;DHT22;383;48.766;9.270;2022-07-26T07:44:09;24.40;60.00
802;DHT22;383;48.766;9.270;2022-07-26T07:46:36;24.60;57.40
802;DHT22;383;48.766;9.270;2022-07-26T07:49:03;24.70;58.00
802;DHT22;383;48.766;9.270;2022-07-26T07:51:29;24.80;57.50
802;DHT22;383;48.766;9.270;2022-07-26T07:53:56;25.00;57.70
802;DHT22;383;48.766;9.270;2022-07-26T07:56:23;25.20;56.90
802;DHT22;383;48.766;9.270;2022-07-26T07:58:51;25.30;54.60
802;DHT22;383;48.766;9.270;2022-07-26T08:01:18;25.40;53.50
802;DHT22;383;48.766;9.270;2022-07-26T08:03:45;25.40;54.40
802;DHT22;383;48.766;9.270;2022-07-26T08:06:11;25.50;54.10
802;DHT22;383;48.766;9.270;2022-07-26T08:08:38;25.70;55.10
802;DHT22;383;48.766;9.270;2022-07-26T08:11:05;26.00;54.50
802;DHT22;383;48.766;9.270;2022-07-26T08:13:32;26.20;52.80
802;DHT22;383;48.766;9.270;2022-07-26T08:16:00;26.20;50.80
802;DHT22;383;48.766;9.270;2022-07-26T08:18:27;26.20;53.10
802;DHT22;383;48.766;9.270;2022-07-26T08:20:53;26.30;52.90
802;DHT22;383;48.766;9.270;2022-07-26T08:23:20;26.50;51.00
802;DHT22;383;48.766;9.270;2022-07-26T08:25:47;26.60;50.20
802;DHT22;383;48.766;9.270;2022-07-26T08:28:14;26.70;50.30
802;DHT22;383;48.766;9.270;2022-07-26T08:30:41;26.70;49.50
802;DHT22;383;48.766;9.270;2022-07-26T08:33:09;26.70;50.40
802;DHT22;383;48.766;9.270;2022-07-26T08:35:36;26.80;50.50
802;DHT22;383;48.766;9.270;2022-07-26T08:38:03;26.90;49.50
802;DHT22;383;48.766;9.270;2022-07-26T08:40:31;27.10;49.80
802;DHT22;383;48.766;9.270;2022-07-26T08:42:57;27.20;48.30
802;DHT22;383;48.766;9.270;2022-07-26T08:45:25;27.20;48.90
802;DHT22;383;48.766;9.270;2022-07-26T08:47:53;27.10;48.70
802;DHT22;383;48.766;9.270;2022-07-26T08:50:21;27.00;48.60
802;DHT22;383;48.766;9.270;2022-07-26T08:52:48;26.90;48.30
802;DHT22;383;48.766;9.270;2022-07-26T08:55:17;26.80;49.80
802;DHT22;383;48.766;9.270;2022-07-26T08:57:45;26.80;49.30
802;DHT22;383;48.766;9.270;2022-07-26T09:00:20;27.00;48.90
802;DHT22;383;48.766;9.270;2022-07-26T09:02:47;27.20;49.00
802;DHT22;383;48.766;9.270;2022-07-26T09:05:14;27.20;46.70
802;DHT22;383;48.766;9.270;2022-07-26T09:07:44;27.00;46.80
802;DHT22;383;48.766;9.270;2022-07-26T09:10:13;27.20;48.10
802;DHT22;383;48.766;9.270;2022-07-26T09:12:41;27.30;46.40
802;DHT22;383;48.766;9.270;2022-07-26T09:15:17;27.30;47.30
802;DHT22;383;48.766;9.270;2022-07-26T09:17:47;27.50;47.40
802;DHT22;383;48.766;9.270;2022-07-26T09:20:16;27.60;45.90
802;DHT22;383;48.766;9.270;2022-07-26T09:23:06;27.70;45.90
802;DHT22;383;48.766;9.270;2022-07-26T09:25:35;28.00;45.80
802;DHT22;383;48.766;9.270;2022-07-26T09:28:03;28.00;45.20
802;DHT22;383;48.766;9.270;2022-07-26T09:30:30;28.00;46.30
802;DHT22;383;48.766;9.270;2022-07-26T09:33:01;28.20;45.30
802;DHT22;383;48.766;9.270;2022-07-26T09:35:31;28.00;45.90
802;DHT22;383;48.766;9.270;2022-07-26T09:37:59;27.90;45.90
802;DHT22;383;48.766;9.270;2022-07-26T09:40:34;27.90;46.90
802;DHT22;383;48.766;9.270;2022-07-26T09:43:03;28.10;47.60
802;DHT22;383;48.766;9.270;2022-07-26T09:45:33;28.20;45.30
802;DHT22;383;48.766;9.270;2022-07-26T09:48:00;28.10;46.10
802;DHT22;383;48.766;9.270;2022-07-26T09:50:28;28.00;46.40
802;DHT22;383;48.766;9.270;2022-07-26T09:53:00;28.10;46.20
802;DHT22;383;48.766;9.270;2022-07-26T09:55:28;28.30;46.90
802;DHT22;383;48.766;9.270;2022-07-26T09:57:56;28.50;45.50
802;DHT22;383;48.766;9.270;2022-07-26T10:00:24;28.70;45.00
802;DHT22;383;48.766;9.270;2022-07-26T10:02:51;28.80;45.90
802;DHT22;383;48.766;9.270;2022-07-26T10:05:19;28.90;44.70
802;DHT22;383;48.766;9.270;2022-07-26T10:07:47;28.60;44.30
802;DHT22;383;48.766;9.270;2022-07-26T10:10:19;28.40;44.20
802;DHT22;383;48.766;9.270;2022-07-26T10:12:49;28.10;44.60
802;DHT22;383;48.766;9.270;2022-07-26T10:15:39;27.80;45.80
802;DHT22;383;48.766;9.270;2022-07-26T10:18:07;27.50;46.70
802;DHT22;383;48.766;9.270;2022-07-26T10:20:43;27.50;46.60
802;DHT22;383;48.766;9.270;2022-07-26T10:23:33;27.60;48.30
802;DHT22;383;48.766;9.270;2022-07-26T10:26:01;27.60;46.40
802;DHT22;383;48.766;9.270;2022-07-26T10:28:30;27.50;46.60
802;DHT22;383;48.766;9.270;2022-07-26T10:31:32;27.10;48.10
802;DHT22;383;48.766;9.270;2022-07-26T10:33:59;27.10;48.80
802;DHT22;383;48.766;9.270;2022-07-26T10:36:30;26.90;48.30
802;DHT22;383;48.766;9.270;2022-07-26T10:39:04;26.90;48.80
802;DHT22;383;48.766;9.270;2022-07-26T10:41:33;27.00;48.60
802;DHT22;383;48.766;9.270;2022-07-26T10:44:17;27.00;48.10
802;DHT22;383;48.766;9.270;2022-07-26T10:47:13;27.20;48.80
802;DHT22;383;48.766;9.270;2022-07-26T10:49:53;27.30;47.90
802;DHT22;383;48.766;9.270;2022-07-26T10:52:23;27.40;47.80
802;DHT22;383;48.766;9.270;2022-07-26T10:55:06;27.40;48.10
802;DHT22;383;48.766;9.270;2022-07-26T10:57:35;27.50;47.70
802;DHT22;383;48.766;9.270;2022-07-26T11:00:07;27.60;47.70
802;DHT22;383;48.766;9.270;2022-07-26T11:02:36;27.70;48.70
802;DHT22;383;48.766;9.270;2022-07-26T11:05:05;27.70;47.60
802;DHT22;383;48.766;9.270;2022-07-26T11:07:47;27.80;46.80
802;DHT22;383;48.766;9.270;2022-07-26T11:10:14;27.90;46.60
802;DHT22;383;48.766;9.270;2022-07-26T11:12:41;27.90;45.30
802;DHT22;383;48.766;9.270;2022-07-26T11:15:15;27.70;46.10
802;DHT22;383;48.766;9.270;2022-07-26T11:17:43;27.50;46.30
802;DHT22;383;48.766;9.270;2022-07-26T11:20:10;27.50;46.80
802;DHT22;383;48.766;9.270;2022-07-26T11:22:37;27.50;46.70
802;DHT22;383;48.766;9.270;2022-07-26T11:25:04;27.60;47.10
802;DHT22;383;48.766;9.270;2022-07-26T11:27:31;27.80;45.60
802;DHT22;383;48.766;9.270;2022-07-26T11:30:02;27.80;45.60
802;DHT22;383;48.766;9.270;2022-07-26T11:32:29;27.80;45.60
802;DHT22;383;48.766;9.270;2022-07-26T11:34:58;27.90;45.80
802;DHT22;383;48.766;9.270;2022-07-26T11:37:25;27.90;45.30
802;DHT22;383;48.766;9.270;2022-07-26T11:39:52;27.70;45.20
802;DHT22;383;48.766;9.270;2022-07-26T11:42:19;27.60;45.80
802;DHT22;383;48.766;9.270;2022-07-26T11:44:47;27.50;45.10
802;DHT22;383;48.766;9.270;2022-07-26T11:47:16;27.40;45.60
802;DHT22;383;48.766;9.270;2022-07-26T11:49:44;27.40;46.30
802;DHT22;383;48.766;9.270;2022-07-26T11:52:13;27.40;45.80
802;DHT22;383;48.766;9.270;2022-07-26T11:54:45;27.40;45.90
802;DHT22;383;48.766;9.270;2022-07-26T11:57:12;27.40;46.20
802;DHT22;383;48.766;9.270;2022-07-26T11:59:39;27.60;46.20
802;DHT22;383;48.766;9.270;2022-07-26T12:02:07;27.80;45.80
802;DHT22;383;48.766;9.270;2022-07-26T12:04:36;28.10;45.10
802;DHT22;383;48.766;9.270;2022-07-26T12:07:08;28.00;43.50
802;DHT22;383;48.766;9.270;2022-07-26T12:09:38;27.60;44.10
802;DHT22;383;48.766;9.270;2022-07-26T12:12:07;27.50;44.50
802;DHT22;383;48.766;9.270;2022-07-26T12:14:35;27.60;45.00
802;DHT22;383;48.766;9.270;2022-07-26T12:17:14;27.80;44.30
802;DHT22;383;48.766;9.270;2022-07-26T12:19:42;27.90;44.10
802;DHT22;383;48.766;9.270;2022-07-26T12:22:11;28.20;43.10
802;DHT22;383;48.766;9.270;2022-07-26T12:24:54;28.20;43.50
802;DHT22;383;48.766;9.270;2022-07-26T12:27:23;28.00;43.00
802;DHT22;383;48.766;9.270;2022-07-26T12:29:51;28.10;43.60
802;DHT22;383;48.766;9.270;2022-07-26T12:32:20;28.30;42.60
802;DHT22;383;48.766;9.270;2022-07-26T12:34:56;28.30;42.50
802;DHT22;383;48.766;9.270;2022-07-26T12:37:23;28.30;42.60
802;DHT22;383;48.766;9.270;2022-07-26T12:40:04;28.40;42.70
802;DHT22;383;48.766;9.270;2022-07-26T12:42:33;28.30;42.40
802;DHT22;383;48.766;9.270;2022-07-26T12:45:01;28.20;42.00
802;DHT22;383;48.766;9.270;2022-07-26T12:47:28;28.30;41.20
802;DHT22;383;48.766;9.270;2022-07-26T12:49:55;28.10;41.70
802;DHT22;383;48.766;9.270;2022-07-26T12:52:22;28.30;42.40
802;DHT22;383;48.766;9.270;2022-07-26T12:54:51;28.50;41.40
802;DHT22;383;48.766;9.270;2022-07-26T12:57:20;28.70;41.00
802;DHT22;383;48.766;9.270;2022-07-26T12:59:48;28.80;41.00
802;DHT22;383;48.766;9.270;2022-07-26T13:02:16;29.00;40.40
802;DHT22;383;48.766;9.270;2022-07-26T13:04:43;29.10;40.00
802;DHT22;383;48.766;9.270;2022-07-26T13:07:10;29.00;39.70
802;DHT22;383;48.766;9.270;2022-07-26T13:09:36;29.00;40.20
802;DHT22;383;48.766;9.270;2022-07-26T13:12:04;29.10;40.40
802;DHT22;383;48.766;9.270;2022-07-26T13:14:34;29.20;39.30
802;DHT22;383;48.766;9.270;2022-07-26T13:17:02;29.20;39.90
802;DHT22;383;48.766;9.270;2022-07-26T13:19:29;29.60;40.10
802;DHT22;383;48.766;9.270;2022-07-26T13:21:56;29.60;38.80
802;DHT22;383;48.766;9.270;2022-07-26T13:24:24;29.70;39.40
802;DHT22;383;48.766;9.270;2022-07-26T13:26:51;30.00;38.90
802;DHT22;383;48.766;9.270;2022-07-26T13:29:18;30.30;38.80
802;DHT22;383;48.766;9.270;2022-07-26T13:31:47;30.20;37.00
802;DHT22;383;48.766;9.270;2022-07-26T13:34:15;30.10;37.00
802;DHT22;383;48.766;9.270;2022-07-26T13:36:42;30.10;37.80
802;DHT22;383;48.766;9.270;2022-07-26T13:39:09;30.40;36.60
802;DHT22;383;48.766;9.270;2022-07-26T13:41:36;30.70;36.90
802;DHT22;383;48.766;9.270;2022-07-26T13:44:03;31.10;37.10
802;DHT22;383;48.766;9.270;2022-07-26T13:46:30;31.50;36.20
802;DHT22;383;48.766;9.270;2022-07-26T13:48:59;31.50;35.80
802;DHT22;383;48.766;9.270;2022-07-26T13:51:29;31.50;35.00
802;DHT22;383;48.766;9.270;2022-07-26T13:54:10;31.40;36.60
802;DHT22;383;48.766;9.270;2022-07-26T13:56:37;31.50;35.70
802;DHT22;383;48.766;9.270;2022-07-26T13:59:04;31.70;35.50
802;DHT22;383;48.766;9.270;2022-07-26T14:01:30;31.70;35.00
802;DHT22;383;48.766;9.270;2022-07-26T14:04:00;31.70;34.50
802;DHT22;383;48.766;9.270;2022-07-26T14:06:27;31.70;36.00
802;DHT22;383;48.766;9.270;2022-07-26T14:08:54;31.90;35.30
802;DHT22;383;48.766;9.270;2022-07-26T14:11:21;31.90;35.00
802;DHT22;383;48.766;9.270;2022-07-26T14:13:48;32.10;35.80
802;DHT22;383;48.766;9.270;2022-07-26T14:16:14;32.20;34.40
802;DHT22;383;48.766;9.270;2022-07-26T14:18:41;32.40;34.80
802;DHT22;383;48.766;9.270;2022-07-26T14:21:09;32.30;34.50
802;DHT22;383;48.766;9.270;2022-07-26T14:23:36;32.10;34.30
802;DHT22;383;48.766;9.270;2022-07-26T14:26:02;31.70;34.00
802;DHT22;383;48.766;9.270;2022-07-26T14:28:29;31.10;35.50
802;DHT22;383;48.766;9.270;2022-07-26T14:30:56;30.80;36.40
802;DHT22;383;48.766;9.270;2022-07-26T14:33:22;30.50;36.50
802;DHT22;383;48.766;9.270;2022-07-26T14:35:49;30.10;36.90
802;DHT22;383;48.766;9.270;2022-07-26T14:38:17;30.20;37.60
802;DHT22;383;48.766;9.270;2022-07-26T14:40:44;30.60;36.00
802;DHT22;383;48.766;9.270;2022-07-26T14:43:12;30.90;36.20
802;DHT22;383;48.766;9.270;2022-07-26T14:45:38;30.90;35.00
802;DHT22;383;48.766;9.270;2022-07-26T14:48:05;30.50;35.30
802;DHT22;383;48.766;9.270;2022-07-26T14:50:32;30.20;36.90
802;DHT22;383;48.766;9.270;2022-07-26T14:52:59;30.00;36.50
802;DHT22;383;48.766;9.270;2022-07-26T14:55:27;29.80;37.50
802;DHT22;383;48.766;9.270;2022-07-26T14:57:53;29.80;36.30
802;DHT22;383;48.766;9.270;2022-07-26T15:00:20;30.00;36.60
802;DHT22;383;48.766;9.270;2022-07-26T15:02:47;30.10;36.30
802;DHT22;383;48.766;9.270;2022-07-26T15:05:15;30.20;36.90
802;DHT22;383;48.766;9.270;2022-07-26T15:07:43;30.20;36.40
802;DHT22;383;48.766;9.270;2022-07-26T15:10:13;30.10;37.40
802;DHT22;383;48.766;9.270;2022-07-26T15:12:41;29.90;36.30
802;DHT22;383;48.766;9.270;2022-07-26T15:15:09;29.90;37.10
802;DHT22;383;48.766;9.270;2022-07-26T15:17:36;29.80;36.40
802;DHT22;383;48.766;9.270;2022-07-26T15:20:05;29.80;36.40
802;DHT22;383;48.766;9.270;2022-07-26T15:22:32;29.90;36.20
802;DHT22;383;48.766;9.270;2022-07-26T15:24:59;30.10;37.00
802;DHT22;383;48.766;9.270;2022-07-26T15:27:25;30.30;35.50
802;DHT22;383;48.766;9.270;2022-07-26T15:29:53;30.30;35.80
802;DHT22;383;48.766;9.270;2022-07-26T15:32:20;30.40;36.40
802;DHT22;383;48.766;9.270;2022-07-26T15:34:47;30.70;35.20
802;DHT22;383;48.766;9.270;2022-07-26T15:37:14;30.90;35.30
802;DHT22;383;48.766;9.270;2022-07-26T15:39:40;30.90;35.30
802;DHT22;383;48.766;9.270;2022-07-26T15:42:07;31.00;34.70
802;DHT22;383;48.766;9.270;2022-07-26T15:44:36;30.70;35.40
802;DHT22;383;48.766;9.270;2022-07-26T15:47:04;30.50;35.30
802;DHT22;383;48.766;9.270;2022-07-26T15:49:31;30.40;35.90
802;DHT22;383;48.766;9.270;2022-07-26T15:51:58;30.30;35.30
802;DHT22;383;48.766;9.270;2022-07-26T15:54:24;30.10;36.40
802;DHT22;383;48.766;9.270;2022-07-26T15:56:51;30.10;37.10
802;DHT22;383;48.766;9.270;2022-07-26T15:59:18;29.90;37.10
802;DHT22;383;48.766;9.270;2022-07-26T16:01:44;29.80;37.80
802;DHT22;383;48.766;9.270;2022-07-26T16:04:12;29.90;37.80
802;DHT22;383;48.766;9.270;2022-07-26T16:06:39;30.10;37.50
802;DHT22;383;48.766;9.270;2022-07-26T16:09:06;30.10;38.00
802;DHT22;383;48.766;9.270;2022-07-26T16:11:33;30.20;38.30
802;DHT22;383;48.766;9.270;2022-07-26T16:14:00;30.30;39.00
802;DHT22;383;48.766;9.270;2022-07-26T16:16:26;30.40;36.90
802;DHT22;383;48.766;9.270;2022-07-26T16:18:53;30.40;36.90
802;DHT22;383;48.766;9.270;2022-07-26T16:21:21;30.50;37.00
802;DHT22;383;48.766;9.270;2022-07-26T16:23:48;30.70;37.90
802;DHT22;383;48.766;9.270;2022-07-26T16:26:15;30.80;37.10
802;DHT22;383;48.766;9.270;2022-07-26T16:28:42;30.70;37.60
802;DHT22;383;48.766;9.270;2022-07-26T16:31:08;30.40;37.80
802;DHT22;383;48.766;9.270;2022-07-26T16:33:35;30.40;38.80
802;DHT22;383;48.766;9.270;2022-07-26T16:36:02;30.30;38.00
802;DHT22;383;48.766;9.270;2022-07-26T16:38:30;30.10;38.30
802;DHT22;383;48.766;9.270;2022-07-26T16:40:57;29.80;39.30